M/y Paradigm — V7TE6 — position and weather

sailwx.info

Track history (hours):
 
Tides and Currents Weather Stations Pressure Air Temp Water Temp Dewpoint Dewpoint Depression Visibility Wind Speed Wind Dir Waves Ship Positions

M/y Paradigm

Last reported at 2015-Mar-25 17:33 UTC. Time now 2015-Mar-29 13:44 UTC.
Position N 18°26' W 064°44'.

Length 35 m.

Type: Pleasure craft. MMSI: 538070694.

Date/timePositionNaut miles runAvg speedWind from/ knotsBaromVisibWave heightAir tempDewpointWater temp
2015-Mar-25 17:33N 18°26' W 064°44'2 1.7
2015-Mar-25 16:32N 18°26' W 064°46'0 0.0
2015-Mar-25 15:32N 18°26' W 064°46'0 0.0
2015-Mar-25 14:26N 18°26' W 064°46'0 0.0
2015-Mar-25 13:32N 18°26' W 064°46'0 0.0
2015-Mar-25 12:32N 18°26' W 064°46'0 0.0
2015-Mar-25 11:32N 18°26' W 064°46'0 0.0
2015-Mar-25 10:20N 18°26' W 064°46'0 0.0
2015-Mar-25 09:32N 18°26' W 064°46'0 0.0
2015-Mar-25 08:32N 18°26' W 064°46'0 0.0
2015-Mar-25 07:26N 18°26' W 064°46'0 0.0
2015-Mar-25 06:32N 18°26' W 064°46'0 0.0
2015-Mar-25 05:32N 18°26' W 064°46'0 0.0
2015-Mar-25 04:32N 18°26' W 064°46'0 0.0
2015-Mar-25 03:32N 18°26' W 064°46'0 0.0
2015-Mar-25 02:26N 18°26' W 064°46'0 0.0
2015-Mar-25 01:26N 18°26' W 064°46'0 0.0
2015-Mar-24 23:23N 18°26' W 064°46'0 0.0
2015-Mar-24 22:17N 18°26' W 064°46'0 0.0
2015-Mar-24 21:23N 18°26' W 064°46'0 0.0
2015-Mar-24 20:29N 18°26' W 064°46'0 0.0
2015-Mar-24 19:29N 18°26' W 064°46'1 1.0
2015-Mar-24 18:33N 18°25' W 064°46'6 5.9
2015-Mar-24 17:30N 18°20' W 064°48'0 0.0
2015-Mar-24 16:30N 18°20' W 064°48'0 0.0
2015-Mar-24 15:30N 18°20' W 064°48'0 0.0
2015-Mar-24 14:30N 18°20' W 064°48'0 0.0
2015-Mar-24 13:30N 18°20' W 064°48'0 0.0
2015-Mar-24 12:24N 18°20' W 064°48'0 0.0
2015-Mar-24 11:30N 18°20' W 064°48'0 0.0
2015-Mar-24 10:30N 18°20' W 064°48'0 0.0
2015-Mar-24 09:21N 18°20' W 064°48'0 0.0
2015-Mar-24 08:27N 18°20' W 064°48'0 0.0
2015-Mar-24 07:06N 18°20' W 064°48'0 0.0
2015-Mar-24 06:21N 18°20' W 064°48'0 0.0
2015-Mar-24 05:30N 18°20' W 064°48'0 0.0
2015-Mar-24 04:33N 18°20' W 064°48'0 0.0
2015-Mar-24 03:33N 18°20' W 064°48'0 0.0
2015-Mar-24 02:33N 18°20' W 064°48'0 0.0
2015-Mar-24 01:33N 18°20' W 064°48'0 0.0
2015-Mar-24 00:33N 18°20' W 064°48'0 0.0
2015-Mar-23 23:18N 18°20' W 064°48'0 0.0
2015-Mar-23 22:30N 18°20' W 064°48'0 0.0
2015-Mar-23 21:30N 18°20' W 064°48'0 0.0
2015-Mar-23 20:18N 18°20' W 064°48'0 0.0
2015-Mar-23 19:25N 18°20' W 064°48'  
Track history (hours):
 
Tides and Currents Weather Stations Pressure Air Temp Water Temp Dewpoint Dewpoint Depression Visibility Wind Speed Wind Dir Waves Ship Positions

M/y Paradigm

Last reported at 2015-Mar-25 17:33 UTC. Time now 2015-Mar-29 13:44 UTC.
Position N 18°26' W 064°44'.

Length 35 m.

Type: Pleasure craft. MMSI: 538070694.

Date/timePositionNaut miles runAvg speedWind from/ knotsBaromVisibWave heightAir tempDewpointWater temp
2015-Mar-25 17:33N 18°26' W 064°44'2 1.7
2015-Mar-25 16:32N 18°26' W 064°46'0 0.0
2015-Mar-25 15:32N 18°26' W 064°46'0 0.0
2015-Mar-25 14:26N 18°26' W 064°46'0 0.0
2015-Mar-25 13:32N 18°26' W 064°46'0 0.0
2015-Mar-25 12:32N 18°26' W 064°46'0 0.0
2015-Mar-25 11:32N 18°26' W 064°46'0 0.0
2015-Mar-25 10:20N 18°26' W 064°46'0 0.0
2015-Mar-25 09:32N 18°26' W 064°46'0 0.0
2015-Mar-25 08:32N 18°26' W 064°46'0 0.0
2015-Mar-25 07:26N 18°26' W 064°46'0 0.0
2015-Mar-25 06:32N 18°26' W 064°46'0 0.0
2015-Mar-25 05:32N 18°26' W 064°46'0 0.0
2015-Mar-25 04:32N 18°26' W 064°46'0 0.0
2015-Mar-25 03:32N 18°26' W 064°46'0 0.0
2015-Mar-25 02:26N 18°26' W 064°46'0 0.0
2015-Mar-25 01:26N 18°26' W 064°46'0 0.0
2015-Mar-24 23:23N 18°26' W 064°46'0 0.0
2015-Mar-24 22:17N 18°26' W 064°46'0 0.0
2015-Mar-24 21:23N 18°26' W 064°46'0 0.0
2015-Mar-24 20:29N 18°26' W 064°46'0 0.0
2015-Mar-24 19:29N 18°26' W 064°46'1 1.0
2015-Mar-24 18:33N 18°25' W 064°46'6 5.9
2015-Mar-24 17:30N 18°20' W 064°48'0 0.0
2015-Mar-24 16:30N 18°20' W 064°48'0 0.0
2015-Mar-24 15:30N 18°20' W 064°48'0 0.0
2015-Mar-24 14:30N 18°20' W 064°48'0 0.0
2015-Mar-24 13:30N 18°20' W 064°48'0 0.0
2015-Mar-24 12:24N 18°20' W 064°48'0 0.0
2015-Mar-24 11:30N 18°20' W 064°48'0 0.0
2015-Mar-24 10:30N 18°20' W 064°48'0 0.0
2015-Mar-24 09:21N 18°20' W 064°48'0 0.0
2015-Mar-24 08:27N 18°20' W 064°48'0 0.0
2015-Mar-24 07:06N 18°20' W 064°48'0 0.0
2015-Mar-24 06:21N 18°20' W 064°48'0 0.0
2015-Mar-24 05:30N 18°20' W 064°48'0 0.0
2015-Mar-24 04:33N 18°20' W 064°48'0 0.0
2015-Mar-24 03:33N 18°20' W 064°48'0 0.0
2015-Mar-24 02:33N 18°20' W 064°48'0 0.0
2015-Mar-24 01:33N 18°20' W 064°48'0 0.0
2015-Mar-24 00:33N 18°20' W 064°48'0 0.0
2015-Mar-23 23:18N 18°20' W 064°48'0 0.0
2015-Mar-23 22:30N 18°20' W 064°48'0 0.0
2015-Mar-23 21:30N 18°20' W 064°48'0 0.0
2015-Mar-23 20:18N 18°20' W 064°48'0 0.0
2015-Mar-23 19:25N 18°20' W 064°48'  

Dump ship's entire track history